Time;durP1;ratioP1;P1;durP2;ratioP2;P2;SDS_P1;SDS_P2;PMS_P1;PMS_P2;Temp;Humidity;BMP_temperature;BMP_pressure;BME280_temperature;BME280_humidity;BME280_pressure;Samples;Min_cycle;Max_cycle;Signal;HPM_P1;HPM_P2
2022/08/14 00:01:16;;;;;;;2.55;2.45;;;;;;;;;;10501686;28;20295;-74
2022/08/14 00:06:17;;;;;;;3.40;3.20;;;;;;;;;;10500506;28;20275;-74
2022/08/14 00:11:18;;;;;;;3.33;3.22;;;;;;;;;;10502094;28;20724;-74
2022/08/14 00:16:19;;;;;;;3.25;3.20;;;;;;;;;;10494721;28;20210;-74
2022/08/14 00:21:20;;;;;;;2.95;2.85;;;;;;;;;;10505065;28;20761;-74
2022/08/14 00:26:22;;;;;;;2.78;2.67;;;;;;;;;;10486450;28;20214;-74
2022/08/14 00:31:23;;;;;;;3.00;2.90;;;;;;;;;;10484129;28;20837;-74
2022/08/14 00:36:25;;;;;;;3.15;3.05;;;;;;;;;;10504556;28;20218;-74
2022/08/14 00:41:30;;;;;;;3.80;3.60;;;;;;;;;;10496570;28;20323;-74
2022/08/14 00:46:31;;;;;;;2.75;2.65;;;;;;;;;;10494480;28;20249;-74
2022/08/14 00:51:32;;;;;;;3.22;3.13;;;;;;;;;;10481681;28;20255;-74
2022/08/14 00:56:33;;;;;;;3.63;3.53;;;;;;;;;;10492479;28;20264;-74
2022/08/14 01:01:35;;;;;;;2.75;2.75;;;;;;;;;;10497179;28;20222;-72
2022/08/14 01:06:37;;;;;;;3.10;3.00;;;;;;;;;;10498692;28;20223;-74
2022/08/14 01:11:38;;;;;;;3.00;2.90;;;;;;;;;;10498462;28;20214;-74
2022/08/14 01:16:39;;;;;;;3.40;3.30;;;;;;;;;;10498230;28;20240;-74
2022/08/14 01:21:41;;;;;;;3.03;2.92;;;;;;;;;;10495997;28;20587;-74
2022/08/14 01:26:42;;;;;;;3.08;2.97;;;;;;;;;;10483605;28;20329;-74
2022/08/14 01:31:51;;;;;;;3.20;3.10;;;;;;;;;;10497598;28;20221;-74
2022/08/14 01:36:52;;;;;;;3.40;3.08;;;;;;;;;;10497054;28;20734;-74
2022/08/14 01:41:59;;;;;;;3.25;3.10;;;;;;;;;;10492980;28;20916;-74
2022/08/14 01:47:02;;;;;;;3.17;3.17;;;;;;;;;;10495613;28;20333;-74
2022/08/14 01:52:03;;;;;;;3.05;2.95;;;;;;;;;;10474789;28;20218;-73
2022/08/14 01:57:10;;;;;;;3.28;3.17;;;;;;;;;;10489630;28;20257;-74
2022/08/14 02:02:13;;;;;;;2.55;2.53;;;;;;;;;;10491322;28;20238;-74
2022/08/14 02:07:14;;;;;;;3.50;3.40;;;;;;;;;;10475973;28;20198;-74
2022/08/14 02:12:15;;;;;;;3.35;3.25;;;;;;;;;;10494770;28;20196;-74
2022/08/14 02:17:16;;;;;;;3.33;3.22;;;;;;;;;;10492776;28;20211;-74
2022/08/14 02:22:17;;;;;;;3.55;3.45;;;;;;;;;;10465238;28;20210;-74
2022/08/14 02:27:19;;;;;;;3.20;3.10;;;;;;;;;;10492237;28;20217;-74
2022/08/14 02:32:20;;;;;;;3.92;3.60;;;;;;;;;;10475659;28;20688;-74
2022/08/14 02:37:22;;;;;;;4.20;3.97;;;;;;;;;;10491431;28;20206;-74
2022/08/14 02:42:24;;;;;;;3.28;3.17;;;;;;;;;;10488300;28;20243;-74
2022/08/14 02:47:27;;;;;;;3.40;3.30;;;;;;;;;;10489001;28;20214;-74
2022/08/14 02:52:28;;;;;;;2.65;2.60;;;;;;;;;;10491994;28;20217;-74
2022/08/14 02:57:29;;;;;;;3.50;3.30;;;;;;;;;;10493068;28;20237;-74
2022/08/14 03:02:32;;;;;;;3.35;3.25;;;;;;;;;;10493163;28;20228;-74
2022/08/14 03:07:33;;;;;;;3.63;3.53;;;;;;;;;;10478724;28;20214;-74
2022/08/14 03:12:34;;;;;;;4.10;3.90;;;;;;;;;;10465236;28;20580;-74
2022/08/14 03:17:35;;;;;;;3.55;3.45;;;;;;;;;;10493306;28;20251;-74
2022/08/14 03:22:36;;;;;;;4.22;4.03;;;;;;;;;;10493043;28;20241;-74
2022/08/14 03:27:38;;;;;;;4.75;4.45;;;;;;;;;;10487656;28;20255;-74
2022/08/14 03:32:39;;;;;;;3.15;3.05;;;;;;;;;;10489413;28;20241;-73
2022/08/14 03:37:41;;;;;;;3.58;3.47;;;;;;;;;;10460978;28;20222;-74
2022/08/14 03:42:42;;;;;;;4.25;4.07;;;;;;;;;;10491992;28;20210;-74
2022/08/14 03:47:44;;;;;;;3.75;3.65;;;;;;;;;;10492514;28;20217;-74
2022/08/14 03:52:45;;;;;;;3.97;3.85;;;;;;;;;;10486495;28;20245;-73
2022/08/14 03:57:47;;;;;;;4.75;4.05;;;;;;;;;;10489616;28;20224;-73
2022/08/14 04:02:48;;;;;;;3.47;3.38;;;;;;;;;;10464007;28;20222;-73
2022/08/14 04:07:49;;;;;;;3.70;3.50;;;;;;;;;;10494318;28;20913;-73
2022/08/14 04:12:50;;;;;;;3.53;3.42;;;;;;;;;;10489646;28;20213;-73
2022/08/14 04:17:52;;;;;;;3.75;3.55;;;;;;;;;;10491309;28;20226;-73
2022/08/14 04:22:53;;;;;;;4.40;4.18;;;;;;;;;;10490258;28;20406;-73
2022/08/14 04:27:54;;;;;;;3.42;3.30;;;;;;;;;;10494926;28;20217;-73
2022/08/14 04:32:56;;;;;;;3.95;3.85;;;;;;;;;;10490385;28;20768;-73
2022/08/14 04:43:35;;;;;;;4.20;4.07;;;;;;;;;;10492069;28;20201;-73
2022/08/14 04:48:36;;;;;;;3.97;3.78;;;;;;;;;;10488254;28;20287;-73
2022/08/14 04:53:40;;;;;;;4.55;4.20;;;;;;;;;;10496214;28;20249;-72
2022/08/14 04:58:41;;;;;;;3.97;3.78;;;;;;;;;;10491682;28;20236;-73
2022/08/14 05:03:43;;;;;;;4.60;4.30;;;;;;;;;;10494472;28;20229;-73
2022/08/14 05:08:44;;;;;;;6.50;5.97;;;;;;;;;;10470262;28;20320;-73
2022/08/14 05:13:45;;;;;;;6.20;5.88;;;;;;;;;;10501499;28;20296;-73
2022/08/14 05:18:48;;;;;;;5.72;5.32;;;;;;;;;;10500067;28;20254;-73
2022/08/14 05:23:50;;;;;;;5.38;5.07;;;;;;;;;;10500637;28;20206;-73
2022/08/14 05:28:51;;;;;;;5.60;5.25;;;;;;;;;;10500827;28;21072;-73
2022/08/14 05:33:52;;;;;;;6.60;6.05;;;;;;;;;;10467752;28;20209;-73
2022/08/14 05:38:53;;;;;;;6.07;5.68;;;;;;;;;;10468026;28;20227;-73
2022/08/14 05:43:54;;;;;;;5.93;5.53;;;;;;;;;;10497541;28;20202;-73
2022/08/14 05:48:57;;;;;;;6.10;5.70;;;;;;;;;;10496408;28;20210;-75
2022/08/14 05:53:58;;;;;;;6.32;5.82;;;;;;;;;;10492402;28;20221;-73
2022/08/14 05:58:59;;;;;;;6.50;6.00;;;;;;;;;;10497075;28;20240;-73
2022/08/14 06:04:00;;;;;;;6.18;5.70;;;;;;;;;;10490521;28;20238;-73
2022/08/14 06:09:01;;;;;;;7.28;6.63;;;;;;;;;;10493031;28;20221;-73
2022/08/14 06:14:04;;;;;;;6.20;5.72;;;;;;;;;;10480579;28;20225;-73
2022/08/14 06:19:05;;;;;;;6.65;6.25;;;;;;;;;;10489042;28;20214;-73
2022/08/14 06:24:06;;;;;;;6.78;6.28;;;;;;;;;;10461083;28;20267;-73
2022/08/14 06:29:09;;;;;;;6.28;5.88;;;;;;;;;;10493250;28;20272;-73
2022/08/14 06:34:10;;;;;;;5.70;5.35;;;;;;;;;;10494215;28;20633;-73
2022/08/14 06:39:11;;;;;;;6.07;5.53;;;;;;;;;;10491183;28;20259;-73
2022/08/14 06:44:12;;;;;;;6.82;6.32;;;;;;;;;;10496695;28;21232;-73
2022/08/14 06:49:13;;;;;;;7.05;6.53;;;;;;;;;;10491605;28;20278;-73
2022/08/14 06:54:14;;;;;;;6.47;6.00;;;;;;;;;;10490435;28;20245;-73
2022/08/14 06:59:15;;;;;;;6.75;6.35;;;;;;;;;;10489312;28;20229;-73
2022/08/14 07:09:36;;;;;;;6.20;5.80;;;;;;;;;;10493375;28;20213;-74
2022/08/14 07:14:37;;;;;;;5.15;4.95;;;;;;;;;;10494980;28;20210;-73
2022/08/14 07:19:38;;;;;;;5.25;4.97;;;;;;;;;;10487547;28;20224;-72
2022/08/14 07:24:39;;;;;;;6.55;6.03;;;;;;;;;;10480684;28;20213;-72
2022/08/14 07:29:41;;;;;;;5.18;4.88;;;;;;;;;;10483531;28;20681;-72
2022/08/14 07:34:42;;;;;;;4.18;4.07;;;;;;;;;;10458413;28;20217;-72
2022/08/14 07:39:43;;;;;;;4.10;3.90;;;;;;;;;;10492257;28;20214;-72
2022/08/14 07:44:44;;;;;;;4.82;4.53;;;;;;;;;;10489523;28;20632;-72
2022/08/14 07:50:02;;;;;;;4.90;4.65;;;;;;;;;;10496103;28;20224;-73
2022/08/14 07:55:04;;;;;;;4.95;4.68;;;;;;;;;;10447626;28;20217;-73
2022/08/14 08:00:11;;;;;;;5.32;4.93;;;;;;;;;;10484395;28;20221;-73
2022/08/14 08:05:14;;;;;;;4.25;4.15;;;;;;;;;;10480624;28;20717;-69
2022/08/14 08:10:32;;;;;;;4.63;4.43;;;;;;;;;;10466409;28;20186;-74
2022/08/14 08:15:35;;;;;;;4.18;4.07;;;;;;;;;;10461441;28;20263;-73
2022/08/14 08:20:37;;;;;;;5.28;5.05;;;;;;;;;;10460409;28;20260;-72
2022/08/14 08:25:39;;;;;;;4.90;4.70;;;;;;;;;;10472088;28;20207;-72
2022/08/14 08:30:41;;;;;;;5.63;5.43;;;;;;;;;;10495930;28;20770;-72
2022/08/14 08:35:43;;;;;;;5.45;5.15;;;;;;;;;;10497498;28;20206;-71
2022/08/14 08:40:46;;;;;;;5.00;4.70;;;;;;;;;;10490458;28;21192;-72
2022/08/14 08:46:05;;;;;;;4.68;4.47;;;;;;;;;;10491444;28;20209;-67
2022/08/14 08:51:06;;;;;;;5.60;5.30;;;;;;;;;;10498540;28;20214;-70
2022/08/14 08:56:07;;;;;;;4.90;4.63;;;;;;;;;;10488461;28;20213;-71
2022/08/14 09:01:08;;;;;;;4.93;4.72;;;;;;;;;;10495469;28;20602;-70
2022/08/14 09:06:09;;;;;;;5.25;4.95;;;;;;;;;;10492731;28;20360;-69
2022/08/14 09:11:11;;;;;;;5.00;4.80;;;;;;;;;;10491177;28;20210;-70
2022/08/14 09:16:12;;;;;;;4.20;4.10;;;;;;;;;;10485786;28;20218;-70
2022/08/14 09:21:13;;;;;;;4.28;4.07;;;;;;;;;;10489757;28;20224;-69
2022/08/14 09:26:14;;;;;;;4.88;4.68;;;;;;;;;;10481242;28;20207;-70
2022/08/14 09:31:16;;;;;;;4.38;4.25;;;;;;;;;;10487043;28;20222;-70
2022/08/14 09:36:36;;;;;;;4.07;3.88;;;;;;;;;;10483660;28;20566;-72
2022/08/14 09:41:59;;;;;;;4.03;3.92;;;;;;;;;;10480576;28;20660;-72
2022/08/14 09:47:00;;;;;;;4.22;4.03;;;;;;;;;;10485108;28;20233;-73
2022/08/14 09:52:14;;;;;;;4.00;3.90;;;;;;;;;;10485841;28;20214;-78
2022/08/14 09:57:26;;;;;;;4.10;4.00;;;;;;;;;;10484079;28;20244;-76
2022/08/14 10:02:31;;;;;;;3.92;3.72;;;;;;;;;;10485458;28;20245;-71
2022/08/14 10:07:33;;;;;;;3.88;3.78;;;;;;;;;;10482444;28;20218;-71
2022/08/14 10:12:41;;;;;;;4.00;3.80;;;;;;;;;;10480425;28;20345;-70
2022/08/14 10:17:42;;;;;;;3.90;3.70;;;;;;;;;;10488838;28;20230;-70
2022/08/14 10:22:44;;;;;;;4.00;3.80;;;;;;;;;;10478739;28;20247;-71
2022/08/14 10:27:45;;;;;;;3.70;3.50;;;;;;;;;;10483623;28;20275;-71
2022/08/14 10:32:47;;;;;;;3.63;3.53;;;;;;;;;;10493169;28;21054;-71
2022/08/14 10:37:49;;;;;;;3.20;3.10;;;;;;;;;;10457060;28;20221;-72
2022/08/14 10:42:50;;;;;;;4.13;4.03;;;;;;;;;;10489988;28;20682;-72
2022/08/14 10:47:52;;;;;;;3.90;3.75;;;;;;;;;;10490701;28;20268;-69
2022/08/14 10:52:56;;;;;;;3.67;3.58;;;;;;;;;;10461121;28;20255;-69
2022/08/14 10:57:57;;;;;;;3.60;3.50;;;;;;;;;;10488319;28;20214;-69
2022/08/14 11:03:06;;;;;;;3.65;3.55;;;;;;;;;;10489053;28;20221;-69
2022/08/14 11:08:08;;;;;;;3.72;3.63;;;;;;;;;;10478784;28;20209;-67
2022/08/14 11:13:09;;;;;;;2.83;2.83;;;;;;;;;;10499099;28;20213;-68
2022/08/14 11:18:11;;;;;;;3.40;3.30;;;;;;;;;;10490242;28;20216;-66
2022/08/14 11:23:12;;;;;;;3.38;3.28;;;;;;;;;;10503454;28;20236;-69
2022/08/14 11:28:14;;;;;;;3.03;3.03;;;;;;;;;;10501736;28;20355;-69
2022/08/14 11:33:16;;;;;;;3.38;3.28;;;;;;;;;;10506270;28;20208;-69
2022/08/14 11:38:20;;;;;;;2.78;2.78;;;;;;;;;;10508222;28;20229;-69
2022/08/14 11:43:21;;;;;;;3.10;3.10;;;;;;;;;;10506624;28;20209;-70
2022/08/14 11:48:23;;;;;;;3.25;3.15;;;;;;;;;;10504271;28;20252;-69
2022/08/14 11:53:27;;;;;;;3.05;2.95;;;;;;;;;;10507707;28;20794;-68
2022/08/14 11:58:30;;;;;;;2.80;2.80;;;;;;;;;;10500745;28;20227;-69
2022/08/14 12:03:41;;;;;;;3.30;3.20;;;;;;;;;;10499732;28;20709;-69
2022/08/14 12:08:45;;;;;;;3.35;3.20;;;;;;;;;;10501178;28;21385;-68
2022/08/14 12:13:46;;;;;;;2.90;2.90;;;;;;;;;;10500032;28;20213;-68
2022/08/14 12:18:49;;;;;;;3.33;3.22;;;;;;;;;;10507299;28;20222;-69
2022/08/14 12:24:04;;;;;;;3.05;3.05;;;;;;;;;;10494516;28;20214;-69
2022/08/14 12:29:08;;;;;;;2.72;2.72;;;;;;;;;;10497852;28;20214;-69
2022/08/14 12:34:11;;;;;;;2.75;2.75;;;;;;;;;;10475157;28;20225;-69
2022/08/14 12:39:25;;;;;;;2.58;2.53;;;;;;;;;;10439616;28;20250;-69
2022/08/14 12:44:30;;;;;;;2.75;2.65;;;;;;;;;;10452086;28;20218;-69
2022/08/14 12:49:33;;;;;;;3.38;3.28;;;;;;;;;;10493349;28;20801;-69
2022/08/14 12:54:34;;;;;;;3.30;3.30;;;;;;;;;;10464544;28;20218;-69
2022/08/14 12:59:35;;;;;;;2.60;2.60;;;;;;;;;;10497808;28;20220;-69
2022/08/14 13:04:37;;;;;;;3.33;3.22;;;;;;;;;;10450452;28;20227;-69
2022/08/14 13:09:38;;;;;;;3.42;3.33;;;;;;;;;;10491161;28;21040;-69
2022/08/14 13:14:42;;;;;;;3.78;3.67;;;;;;;;;;10499663;28;20218;-70
2022/08/14 13:19:44;;;;;;;3.10;3.00;;;;;;;;;;10492858;28;20597;-69
2022/08/14 13:24:46;;;;;;;3.58;3.47;;;;;;;;;;10496630;28;20271;-65
2022/08/14 13:29:50;;;;;;;3.78;3.60;;;;;;;;;;10486873;28;20689;-69
2022/08/14 13:34:51;;;;;;;3.80;3.70;;;;;;;;;;10472372;28;20739;-69
2022/08/14 13:39:53;;;;;;;3.40;3.30;;;;;;;;;;10452213;28;20218;-67
2022/08/14 13:44:55;;;;;;;3.75;3.65;;;;;;;;;;10482460;28;20708;-70
2022/08/14 13:50:01;;;;;;;3.72;3.63;;;;;;;;;;10486510;28;20222;-69
2022/08/14 13:55:04;;;;;;;3.92;3.65;;;;;;;;;;10466023;28;20253;-69
2022/08/14 14:00:11;;;;;;;3.95;3.75;;;;;;;;;;10483543;28;20254;-70
2022/08/14 14:05:20;;;;;;;3.95;3.85;;;;;;;;;;10486439;28;20249;-69
2022/08/14 14:10:22;;;;;;;3.50;3.45;;;;;;;;;;10485077;28;20213;-69
2022/08/14 14:15:23;;;;;;;3.08;3.08;;;;;;;;;;10487535;28;20185;-70
2022/08/14 14:20:25;;;;;;;3.25;3.25;;;;;;;;;;10492408;28;20260;-69
2022/08/14 14:25:26;;;;;;;4.00;3.80;;;;;;;;;;10492808;28;20216;-69
2022/08/14 14:30:28;;;;;;;3.58;3.47;;;;;;;;;;10498659;28;20865;-69
2022/08/14 14:35:29;;;;;;;3.17;3.17;;;;;;;;;;10488439;28;20205;-69
2022/08/14 14:40:33;;;;;;;3.55;3.45;;;;;;;;;;10493332;28;20323;-69
2022/08/14 14:45:36;;;;;;;3.50;3.50;;;;;;;;;;10493697;28;20213;-69
2022/08/14 14:50:38;;;;;;;4.03;3.92;;;;;;;;;;10493466;28;20304;-69
2022/08/14 14:55:40;;;;;;;3.85;3.75;;;;;;;;;;10456856;28;20220;-68
2022/08/14 15:00:43;;;;;;;3.50;3.40;;;;;;;;;;10485261;28;20229;-69
2022/08/14 15:05:44;;;;;;;3.33;3.33;;;;;;;;;;10480790;28;20602;-69
2022/08/14 15:10:45;;;;;;;3.42;3.33;;;;;;;;;;10460030;28;20213;-69
2022/08/14 15:15:46;;;;;;;3.58;3.47;;;;;;;;;;10493920;28;20209;-69
2022/08/14 15:20:48;;;;;;;3.50;3.40;;;;;;;;;;10484943;28;20240;-69
2022/08/14 15:25:50;;;;;;;3.45;3.40;;;;;;;;;;10468485;28;20681;-68
2022/08/14 15:30:51;;;;;;;2.80;2.80;;;;;;;;;;10485847;28;20210;-68
2022/08/14 15:35:53;;;;;;;3.33;3.22;;;;;;;;;;10488061;28;20240;-68
2022/08/14 15:40:54;;;;;;;3.72;3.63;;;;;;;;;;10491444;28;20224;-68
2022/08/14 15:45:55;;;;;;;3.42;3.35;;;;;;;;;;10492328;28;20205;-67
2022/08/14 15:50:57;;;;;;;3.08;3.08;;;;;;;;;;10483375;28;20628;-69
2022/08/14 15:55:58;;;;;;;3.17;3.08;;;;;;;;;;10476141;28;20209;-65
2022/08/14 16:06:20;;;;;;;3.70;3.60;;;;;;;;;;10480479;28;20729;-68
2022/08/14 16:11:22;;;;;;;3.42;3.33;;;;;;;;;;10491930;28;20245;-68
2022/08/14 16:16:25;;;;;;;3.25;3.25;;;;;;;;;;10490722;28;20817;-70
2022/08/14 16:21:29;;;;;;;3.70;3.50;;;;;;;;;;10482636;28;20318;-67
2022/08/14 16:26:30;;;;;;;3.53;3.40;;;;;;;;;;10478000;28;20303;-69
2022/08/14 16:31:32;;;;;;;3.85;3.75;;;;;;;;;;10461686;28;20211;-68
2022/08/14 16:36:34;;;;;;;4.38;4.18;;;;;;;;;;10456481;28;20284;-69
2022/08/14 16:41:35;;;;;;;3.50;3.40;;;;;;;;;;10480977;28;20221;-68
2022/08/14 16:46:38;;;;;;;3.65;3.55;;;;;;;;;;10489113;28;20214;-69
2022/08/14 16:51:41;;;;;;;3.90;3.70;;;;;;;;;;10490541;28;20669;-69
2022/08/14 16:56:43;;;;;;;3.85;3.75;;;;;;;;;;10484105;28;21184;-68
2022/08/14 17:01:45;;;;;;;3.22;3.20;;;;;;;;;;10458892;28;20644;-67
2022/08/14 17:06:51;;;;;;;3.90;3.67;;;;;;;;;;10491625;28;20226;-68
2022/08/14 17:11:55;;;;;;;3.15;3.15;;;;;;;;;;10490996;28;20256;-67
2022/08/14 17:16:57;;;;;;;3.80;3.60;;;;;;;;;;10460066;28;20210;-66
2022/08/14 17:21:58;;;;;;;3.17;3.08;;;;;;;;;;10488689;28;20221;-67
2022/08/14 17:27:00;;;;;;;3.05;3.05;;;;;;;;;;10495512;28;20214;-67
2022/08/14 17:32:07;;;;;;;2.85;2.83;;;;;;;;;;10491603;28;20215;-66
2022/08/14 17:37:09;;;;;;;2.70;2.70;;;;;;;;;;10438893;28;20215;-67
2022/08/14 17:42:10;;;;;;;3.72;3.63;;;;;;;;;;10437576;28;20558;-67
2022/08/14 17:47:12;;;;;;;2.67;2.58;;;;;;;;;;10484408;28;20232;-69
2022/08/14 17:52:17;;;;;;;2.95;2.88;;;;;;;;;;10475607;28;20217;-62
2022/08/14 17:57:23;;;;;;;3.00;2.90;;;;;;;;;;10478138;28;20275;-67
2022/08/14 18:02:26;;;;;;;2.47;2.47;;;;;;;;;;10482627;28;20826;-67
2022/08/14 18:07:28;;;;;;;2.70;2.70;;;;;;;;;;10484945;28;21226;-68
2022/08/14 18:12:32;;;;;;;2.78;2.67;;;;;;;;;;10458636;28;20225;-68
2022/08/14 18:17:36;;;;;;;2.63;2.53;;;;;;;;;;10472581;28;20221;-69
2022/08/14 18:22:37;;;;;;;1.98;1.88;;;;;;;;;;10486392;28;20217;-68
2022/08/14 18:27:40;;;;;;;1.90;1.90;;;;;;;;;;10485219;28;20218;-68
2022/08/14 18:32:48;;;;;;;2.10;2.10;;;;;;;;;;10475252;28;20206;-68
2022/08/14 18:37:49;;;;;;;1.77;1.77;;;;;;;;;;10491032;28;20224;-69
2022/08/14 18:42:52;;;;;;;2.10;2.10;;;;;;;;;;10488809;28;20263;-68
2022/08/14 18:48:09;;;;;;;2.47;2.30;;;;;;;;;;10491813;28;20210;-69
2022/08/14 18:53:11;;;;;;;2.38;2.38;;;;;;;;;;10491133;28;20308;-69
2022/08/14 18:58:14;;;;;;;2.17;2.17;;;;;;;;;;10480517;28;20214;-70
2022/08/14 19:03:18;;;;;;;2.67;2.65;;;;;;;;;;10480070;28;20660;-69
2022/08/14 19:08:21;;;;;;;2.28;2.28;;;;;;;;;;10485994;28;20206;-71
2022/08/14 19:13:28;;;;;;;2.78;2.67;;;;;;;;;;10489075;28;20230;-73
2022/08/14 19:18:30;;;;;;;2.65;2.55;;;;;;;;;;10489937;28;20787;-71
2022/08/14 19:23:35;;;;;;;3.08;2.97;;;;;;;;;;10467894;28;20206;-71
2022/08/14 19:28:44;;;;;;;2.90;2.70;;;;;;;;;;10483519;28;20929;-71
2022/08/14 19:33:45;;;;;;;3.10;2.90;;;;;;;;;;10490843;28;20759;-73
2022/08/14 19:38:50;;;;;;;2.70;2.70;;;;;;;;;;10500517;28;20709;-72
2022/08/14 19:43:52;;;;;;;2.60;2.50;;;;;;;;;;10493277;28;20217;-74
2022/08/14 19:48:54;;;;;;;2.47;2.38;;;;;;;;;;10496399;28;20238;-74
2022/08/14 19:53:57;;;;;;;4.47;2.67;;;;;;;;;;10498213;28;20218;-70
2022/08/14 19:58:58;;;;;;;2.65;2.60;;;;;;;;;;10461786;28;20723;-70
2022/08/14 20:04:00;;;;;;;2.90;2.80;;;;;;;;;;10499982;28;20233;-70
2022/08/14 20:09:03;;;;;;;2.72;2.67;;;;;;;;;;10479963;28;20261;-70
2022/08/14 20:14:04;;;;;;;2.20;2.20;;;;;;;;;;10496737;28;20226;-70
2022/08/14 20:19:12;;;;;;;2.70;2.70;;;;;;;;;;10495414;28;20249;-70
2022/08/14 20:24:18;;;;;;;2.42;2.42;;;;;;;;;;10502888;28;20209;-71
2022/08/14 20:29:29;;;;;;;3.10;3.00;;;;;;;;;;10495316;28;20221;-71
2022/08/14 20:34:37;;;;;;;2.42;2.42;;;;;;;;;;10471411;28;20274;-71
2022/08/14 20:39:39;;;;;;;2.60;2.60;;;;;;;;;;10499412;28;20769;-71
2022/08/14 20:50:14;;;;;;;2.58;2.50;;;;;;;;;;10491883;28;20232;-71
2022/08/14 20:55:21;;;;;;;3.10;3.00;;;;;;;;;;10495220;28;20186;-70
2022/08/14 21:00:37;;;;;;;3.20;3.10;;;;;;;;;;10491987;28;20249;-70
2022/08/14 21:05:38;;;;;;;2.72;2.60;;;;;;;;;;10493815;28;20225;-70
2022/08/14 21:10:41;;;;;;;3.05;2.97;;;;;;;;;;10496724;28;20240;-69
2022/08/14 21:15:42;;;;;;;2.80;2.80;;;;;;;;;;10493043;28;20220;-69
2022/08/14 21:20:44;;;;;;;3.03;2.92;;;;;;;;;;10491780;28;20678;-68
2022/08/14 21:25:45;;;;;;;2.58;2.47;;;;;;;;;;10498115;28;20295;-70
2022/08/14 21:30:47;;;;;;;2.45;2.45;;;;;;;;;;10491543;28;20210;-70
2022/08/14 21:35:49;;;;;;;2.75;2.65;;;;;;;;;;10491362;28;20271;-69
2022/08/14 21:40:52;;;;;;;2.25;2.25;;;;;;;;;;10497023;28;20228;-70
2022/08/14 21:45:57;;;;;;;2.53;2.42;;;;;;;;;;10496948;28;20217;-70
2022/08/14 21:50:59;;;;;;;2.70;2.58;;;;;;;;;;10494368;28;20225;-70
2022/08/14 21:56:01;;;;;;;2.50;2.30;;;;;;;;;;10494578;28;20596;-69
2022/08/14 22:01:02;;;;;;;2.47;2.47;;;;;;;;;;10490991;28;20231;-70
2022/08/14 22:06:04;;;;;;;2.33;2.33;;;;;;;;;;10458520;28;20267;-70
2022/08/14 22:11:06;;;;;;;2.60;2.50;;;;;;;;;;10486495;28;20210;-71
2022/08/14 22:16:07;;;;;;;2.75;2.55;;;;;;;;;;10482187;28;20218;-71
2022/08/14 22:21:08;;;;;;;2.20;2.10;;;;;;;;;;10491759;28;20248;-71
2022/08/14 22:26:10;;;;;;;2.83;2.70;;;;;;;;;;10486636;28;20244;-72
2022/08/14 22:31:15;;;;;;;2.58;2.55;;;;;;;;;;10480397;28;20213;-70
2022/08/14 22:41:36;;;;;;;3.05;2.97;;;;;;;;;;10455128;28;20304;-71
2022/08/14 22:46:38;;;;;;;2.25;2.25;;;;;;;;;;10485453;28;20208;-71
2022/08/14 22:51:39;;;;;;;2.75;2.67;;;;;;;;;;10496671;28;20748;-71
2022/08/14 22:56:40;;;;;;;3.00;2.90;;;;;;;;;;10493660;28;20601;-72
2022/08/14 23:01:48;;;;;;;3.40;3.20;;;;;;;;;;10486632;28;20213;-71
2022/08/14 23:06:50;;;;;;;3.10;3.00;;;;;;;;;;10485173;28;20214;-71
2022/08/14 23:11:53;;;;;;;2.63;2.60;;;;;;;;;;10465306;28;20581;-72
2022/08/14 23:16:54;;;;;;;2.78;2.67;;;;;;;;;;10488565;28;20697;-71
2022/08/14 23:21:55;;;;;;;2.28;2.20;;;;;;;;;;10492028;28;20217;-71
2022/08/14 23:26:56;;;;;;;2.90;2.85;;;;;;;;;;10489966;28;20217;-71
2022/08/14 23:31:58;;;;;;;2.50;2.33;;;;;;;;;;10490249;28;20243;-72
2022/08/14 23:36:59;;;;;;;2.45;2.45;;;;;;;;;;10489214;28;20237;-72
2022/08/14 23:42:05;;;;;;;2.90;2.80;;;;;;;;;;10490555;28;20214;-71
2022/08/14 23:47:08;;;;;;;3.63;3.42;;;;;;;;;;10472430;28;20217;-72
2022/08/14 23:52:09;;;;;;;3.60;3.50;;;;;;;;;;10488265;28;20218;-71
2022/08/14 23:57:10;;;;;;;3.33;3.22;;;;;;;;;;10487709;28;20715;-72
